Ana Sayfa
METAR-TAF:

METAR-TAF

Havaalanları :

De Queen, Arkansas, Amerika Birleşik Devletleri

Enlem: 34-02-49N, Boylam: 094-23-58W, yükseklik: 108 m

Güncel hava durumu gözlemi

Rapor saat 02:53 UTC de 54 dakika önce yapıldı.
Sakin rüzgar
Sıcaklık 3°C
Nem 75%
Basınç 1023 hPa
Görüş mesafesi: 16.1 km
Açık gökyüzü

METAR: KDEQ 280253Z AUTO 00000KT 10SM CLR 03/M01 A3022 RMK AO1 SLP234 T00281006 53001

Saat: 21:47 (03:47 UTC)


TAF: eksik

4.000'den fazla havaalanı için hava durumu gözlemleri ve tahminleri (METAR ve TAF raporları).

Kullanılabilir istasyonlar harita üzerinde sarı ve kırmızı noktalarla gösterilir.

İstasyonun adını görmek için fareyi noktanın üzerinde gezdirin.

Sonrasında hava gözlem ve tahminlerini görmek için tıklayın.

Haritayı değiştirmek için: yaklaştırmak için siyah artı işaretli yeşil düğmeye ve uzaklaştırmak için de eksi işaretli düğmeye hızla tıklayın; bitişik haritalar için yeşil okları kullanın.


METAR-TAF: